sensor_id;sensor_type;location;lat;lon;timestamp;pressure;altitude;pressure_sealevel;temperature;humidity
44297;BME280;51842;47.450;8.654;2023-10-09T00:01:45;96265.41;;;11.66;100.00
44297;BME280;51842;47.450;8.654;2023-10-09T00:04:12;96272.88;;;11.64;100.00
44297;BME280;51842;47.450;8.654;2023-10-09T00:06:40;96266.19;;;11.61;100.00
44297;BME280;51842;47.450;8.654;2023-10-09T00:09:08;96267.75;;;11.57;100.00
44297;BME280;51842;47.450;8.654;2023-10-09T00:11:51;96278.38;;;11.52;100.00
44297;BME280;51842;47.450;8.654;2023-10-09T00:14:29;96274.91;;;11.51;100.00
44297;BME280;51842;47.450;8.654;2023-10-09T00:17:01;96276.28;;;11.54;100.00
44297;BME280;51842;47.450;8.654;2023-10-09T00:19:47;96273.91;;;11.57;100.00
44297;BME280;51842;47.450;8.654;2023-10-09T00:22:17;96281.63;;;11.59;100.00
44297;BME280;51842;47.450;8.654;2023-10-09T00:24:49;96274.19;;;11.61;100.00
44297;BME280;51842;47.450;8.654;2023-10-09T00:27:17;96267.19;;;11.55;100.00
44297;BME280;51842;47.450;8.654;2023-10-09T00:29:49;96269.66;;;11.62;100.00
44297;BME280;51842;47.450;8.654;2023-10-09T00:32:20;96265.94;;;11.63;100.00
44297;BME280;51842;47.450;8.654;2023-10-09T00:34:52;96266.47;;;11.60;100.00
44297;BME280;51842;47.450;8.654;2023-10-09T00:37:18;96270.38;;;11.52;100.00
44297;BME280;51842;47.450;8.654;2023-10-09T00:39:52;96266.63;;;11.48;100.00
44297;BME280;51842;47.450;8.654;2023-10-09T00:42:25;96269.78;;;11.45;100.00
44297;BME280;51842;47.450;8.654;2023-10-09T00:44:56;96270.00;;;11.38;100.00
44297;BME280;51842;47.450;8.654;2023-10-09T00:47:22;96267.56;;;11.37;100.00
44297;BME280;51842;47.450;8.654;2023-10-09T00:50:10;96275.53;;;11.31;100.00
44297;BME280;51842;47.450;8.654;2023-10-09T00:52:38;96271.22;;;11.25;100.00
44297;BME280;51842;47.450;8.654;2023-10-09T00:55:19;96270.69;;;11.28;100.00
44297;BME280;51842;47.450;8.654;2023-10-09T00:58:05;96269.28;;;11.21;100.00
44297;BME280;51842;47.450;8.654;2023-10-09T01:00:39;96268.22;;;11.22;100.00
44297;BME280;51842;47.450;8.654;2023-10-09T01:03:16;96268.91;;;11.12;100.00
44297;BME280;51842;47.450;8.654;2023-10-09T01:08:27;96255.97;;;10.99;100.00
44297;BME280;51842;47.450;8.654;2023-10-09T01:11:17;96252.53;;;10.98;100.00
44297;BME280;51842;47.450;8.654;2023-10-09T01:13:56;96251.13;;;10.91;100.00
44297;BME280;51842;47.450;8.654;2023-10-09T01:16:38;96244.16;;;10.89;100.00
44297;BME280;51842;47.450;8.654;2023-10-09T01:19:07;96245.53;;;10.92;100.00
44297;BME280;51842;47.450;8.654;2023-10-09T01:21:39;96250.00;;;10.86;100.00
44297;BME280;51842;47.450;8.654;2023-10-09T01:24:06;96249.19;;;10.86;100.00
44297;BME280;51842;47.450;8.654;2023-10-09T01:26:42;96246.81;;;10.89;100.00
44297;BME280;51842;47.450;8.654;2023-10-09T01:29:12;96250.56;;;10.88;100.00
44297;BME280;51842;47.450;8.654;2023-10-09T01:31:47;96244.66;;;10.86;100.00
44297;BME280;51842;47.450;8.654;2023-10-09T01:34:33;96250.28;;;10.90;100.00
44297;BME280;51842;47.450;8.654;2023-10-09T01:37:20;96243.41;;;10.94;100.00
44297;BME280;51842;47.450;8.654;2023-10-09T01:39:53;96245.53;;;10.92;100.00
44297;BME280;51842;47.450;8.654;2023-10-09T01:42:23;96245.22;;;10.88;100.00
44297;BME280;51842;47.450;8.654;2023-10-09T01:44:57;96236.63;;;10.81;100.00
44297;BME280;51842;47.450;8.654;2023-10-09T01:47:38;96229.13;;;10.78;100.00
44297;BME280;51842;47.450;8.654;2023-10-09T01:50:07;96235.06;;;10.85;100.00
44297;BME280;51842;47.450;8.654;2023-10-09T01:52:46;96232.41;;;10.85;100.00
44297;BME280;51842;47.450;8.654;2023-10-09T01:55:11;96233.47;;;10.84;100.00
44297;BME280;51842;47.450;8.654;2023-10-09T01:58:03;96227.78;;;10.81;100.00
44297;BME280;51842;47.450;8.654;2023-10-09T02:00:42;96224.91;;;10.82;100.00
44297;BME280;51842;47.450;8.654;2023-10-09T02:03:15;96227.06;;;10.85;100.00
44297;BME280;51842;47.450;8.654;2023-10-09T02:05:44;96221.72;;;10.85;100.00
44297;BME280;51842;47.450;8.654;2023-10-09T02:08:10;96226.50;;;10.83;100.00
44297;BME280;51842;47.450;8.654;2023-10-09T02:10:37;96235.34;;;10.89;100.00
44297;BME280;51842;47.450;8.654;2023-10-09T02:13:06;96231.44;;;10.97;100.00
44297;BME280;51842;47.450;8.654;2023-10-09T02:15:35;96229.81;;;10.96;100.00
44297;BME280;51842;47.450;8.654;2023-10-09T02:20:50;96220.44;;;10.88;100.00
44297;BME280;51842;47.450;8.654;2023-10-09T02:23:35;96228.13;;;10.84;100.00
44297;BME280;51842;47.450;8.654;2023-10-09T02:26:12;96223.84;;;10.83;100.00
44297;BME280;51842;47.450;8.654;2023-10-09T02:29:13;96223.03;;;10.83;100.00
44297;BME280;51842;47.450;8.654;2023-10-09T02:31:39;96213.44;;;10.82;100.00
44297;BME280;51842;47.450;8.654;2023-10-09T02:34:12;96216.84;;;10.77;100.00
44297;BME280;51842;47.450;8.654;2023-10-09T02:36:41;96211.97;;;10.69;100.00
44297;BME280;51842;47.450;8.654;2023-10-09T02:39:10;96207.38;;;10.64;100.00
44297;BME280;51842;47.450;8.654;2023-10-09T02:41:50;96221.56;;;10.70;100.00
44297;BME280;51842;47.450;8.654;2023-10-09T02:44:16;96221.06;;;10.73;100.00
44297;BME280;51842;47.450;8.654;2023-10-09T02:46:43;96220.06;;;10.79;100.00
44297;BME280;51842;47.450;8.654;2023-10-09T02:49:10;96226.19;;;10.80;100.00
44297;BME280;51842;47.450;8.654;2023-10-09T02:51:41;96211.56;;;10.82;100.00
44297;BME280;51842;47.450;8.654;2023-10-09T02:54:13;96220.06;;;10.79;100.00
44297;BME280;51842;47.450;8.654;2023-10-09T02:56:53;96217.03;;;10.71;100.00
44297;BME280;51842;47.450;8.654;2023-10-09T02:59:32;96217.84;;;10.71;100.00
44297;BME280;51842;47.450;8.654;2023-10-09T03:01:58;96215.63;;;10.63;100.00
44297;BME280;51842;47.450;8.654;2023-10-09T03:04:28;96212.41;;;10.61;100.00
44297;BME280;51842;47.450;8.654;2023-10-09T03:06:58;96210.16;;;10.53;100.00
44297;BME280;51842;47.450;8.654;2023-10-09T03:09:25;96206.69;;;10.52;100.00
44297;BME280;51842;47.450;8.654;2023-10-09T03:11:59;96205.84;;;10.47;100.00
44297;BME280;51842;47.450;8.654;2023-10-09T03:14:32;96210.34;;;10.46;100.00
44297;BME280;51842;47.450;8.654;2023-10-09T03:17:01;96210.13;;;10.48;100.00
44297;BME280;51842;47.450;8.654;2023-10-09T03:19:30;96211.41;;;10.45;100.00
44297;BME280;51842;47.450;8.654;2023-10-09T03:21:57;96214.00;;;10.40;100.00
44297;BME280;51842;47.450;8.654;2023-10-09T03:26:57;96210.09;;;10.26;100.00
44297;BME280;51842;47.450;8.654;2023-10-09T03:29:24;96206.53;;;10.20;100.00
44297;BME280;51842;47.450;8.654;2023-10-09T03:31:50;96209.69;;;10.17;100.00
44297;BME280;51842;47.450;8.654;2023-10-09T03:34:17;96208.41;;;10.19;100.00
44297;BME280;51842;47.450;8.654;2023-10-09T03:36:45;96211.00;;;10.14;100.00
44297;BME280;51842;47.450;8.654;2023-10-09T03:39:14;96211.47;;;10.11;100.00
44297;BME280;51842;47.450;8.654;2023-10-09T03:41:58;96206.16;;;10.11;100.00
44297;BME280;51842;47.450;8.654;2023-10-09T03:44:25;96207.13;;;10.05;100.00
44297;BME280;51842;47.450;8.654;2023-10-09T03:46:55;96214.09;;;10.06;100.00
44297;BME280;51842;47.450;8.654;2023-10-09T03:49:20;96198.03;;;10.01;100.00
44297;BME280;51842;47.450;8.654;2023-10-09T03:51:52;96204.66;;;9.99;100.00
44297;BME280;51842;47.450;8.654;2023-10-09T03:54:19;96203.84;;;9.98;100.00
44297;BME280;51842;47.450;8.654;2023-10-09T03:56:49;96194.75;;;9.94;100.00
44297;BME280;51842;47.450;8.654;2023-10-09T03:59:18;96202.97;;;9.92;100.00
44297;BME280;51842;47.450;8.654;2023-10-09T04:01:50;96196.28;;;9.90;100.00
44297;BME280;51842;47.450;8.654;2023-10-09T04:04:18;96210.91;;;9.87;100.00
44297;BME280;51842;47.450;8.654;2023-10-09T04:06:49;96195.47;;;9.89;100.00
44297;BME280;51842;47.450;8.654;2023-10-09T04:09:19;96203.72;;;9.88;100.00
44297;BME280;51842;47.450;8.654;2023-10-09T04:11:55;96200.81;;;9.89;100.00
44297;BME280;51842;47.450;8.654;2023-10-09T04:14:33;96202.97;;;9.92;100.00
44297;BME280;51842;47.450;8.654;2023-10-09T04:16:59;96200.88;;;9.94;100.00
44297;BME280;51842;47.450;8.654;2023-10-09T04:19:54;96205.63;;;9.92;100.00
44297;BME280;51842;47.450;8.654;2023-10-09T04:22:40;96206.44;;;9.93;100.00
44297;BME280;51842;47.450;8.654;2023-10-09T04:25:25;96200.63;;;9.96;100.00
44297;BME280;51842;47.450;8.654;2023-10-09T04:28:00;96204.13;;;9.96;100.00
44297;BME280;51842;47.450;8.654;2023-10-09T04:30:39;96203.44;;;10.06;100.00
44297;BME280;51842;47.450;8.654;2023-10-09T04:33:21;96201.28;;;10.03;100.00
44297;BME280;51842;47.450;8.654;2023-10-09T04:36:04;96200.53;;;10.08;100.00
44297;BME280;51842;47.450;8.654;2023-10-09T04:38:53;96200.34;;;10.14;100.00
44297;BME280;51842;47.450;8.654;2023-10-09T04:41:42;96196.66;;;10.15;100.00
44297;BME280;51842;47.450;8.654;2023-10-09T04:44:08;96197.75;;;10.19;100.00
44297;BME280;51842;47.450;8.654;2023-10-09T04:46:55;96196.47;;;10.22;100.00
44297;BME280;51842;47.450;8.654;2023-10-09T04:49:37;96200.47;;;10.25;100.00
44297;BME280;51842;47.450;8.654;2023-10-09T04:52:28;96195.75;;;10.27;100.00
44297;BME280;51842;47.450;8.654;2023-10-09T04:54:54;96199.78;;;10.29;100.00
44297;BME280;51842;47.450;8.654;2023-10-09T04:57:36;96205.72;;;10.36;100.00
44297;BME280;51842;47.450;8.654;2023-10-09T05:00:16;96205.22;;;10.39;100.00
44297;BME280;51842;47.450;8.654;2023-10-09T05:02:55;96210.31;;;10.41;100.00
44297;BME280;51842;47.450;8.654;2023-10-09T05:05:24;96212.47;;;10.44;100.00
44297;BME280;51842;47.450;8.654;2023-10-09T05:11:01;96207.66;;;10.41;100.00
44297;BME280;51842;47.450;8.654;2023-10-09T05:13:32;96209.50;;;10.40;100.00
44297;BME280;51842;47.450;8.654;2023-10-09T05:16:18;96213.69;;;10.36;100.00
44297;BME280;51842;47.450;8.654;2023-10-09T05:18:46;96202.25;;;10.36;100.00
44297;BME280;51842;47.450;8.654;2023-10-09T05:21:36;96208.69;;;10.40;100.00
44297;BME280;51842;47.450;8.654;2023-10-09T05:24:13;96209.00;;;10.44;100.00
44297;BME280;51842;47.450;8.654;2023-10-09T05:26:48;96211.91;;;10.42;100.00
44297;BME280;51842;47.450;8.654;2023-10-09T05:29:21;96211.34;;;10.40;100.00
44297;BME280;51842;47.450;8.654;2023-10-09T05:31:51;96212.41;;;10.39;100.00
44297;BME280;51842;47.450;8.654;2023-10-09T05:34:26;96209.75;;;10.39;100.00
44297;BME280;51842;47.450;8.654;2023-10-09T05:37:10;96209.13;;;10.32;100.00
44297;BME280;51842;47.450;8.654;2023-10-09T05:39:55;96213.09;;;10.29;100.00
44297;BME280;51842;47.450;8.654;2023-10-09T05:42:28;96214.59;;;10.25;100.00
44297;BME280;51842;47.450;8.654;2023-10-09T05:45:16;96214.31;;;10.22;100.00
44297;BME280;51842;47.450;8.654;2023-10-09T05:47:47;96217.47;;;10.18;100.00
44297;BME280;51842;47.450;8.654;2023-10-09T05:50:20;96208.63;;;10.18;100.00
44297;BME280;51842;47.450;8.654;2023-10-09T05:52:55;96210.81;;;10.21;100.00
44297;BME280;51842;47.450;8.654;2023-10-09T05:55:25;96213.25;;;10.23;100.00
44297;BME280;51842;47.450;8.654;2023-10-09T05:58:04;96215.91;;;10.23;100.00
44297;BME280;51842;47.450;8.654;2023-10-09T06:00:48;96206.63;;;10.25;100.00
44297;BME280;51842;47.450;8.654;2023-10-09T06:03:31;96218.31;;;10.24;100.00
44297;BME280;51842;47.450;8.654;2023-10-09T06:06:21;96220.88;;;10.36;100.00
44297;BME280;51842;47.450;8.654;2023-10-09T06:09:08;96226.81;;;10.43;100.00
44297;BME280;51842;47.450;8.654;2023-10-09T06:11:45;96231.16;;;10.49;100.00
44297;BME280;51842;47.450;8.654;2023-10-09T06:14:19;96231.72;;;10.51;100.00
44297;BME280;51842;47.450;8.654;2023-10-09T06:16:52;96238.53;;;10.64;100.00
44297;BME280;51842;47.450;8.654;2023-10-09T06:19:41;96241.63;;;10.78;100.00
44297;BME280;51842;47.450;8.654;2023-10-09T06:22:10;96236.97;;;10.90;100.00
44297;BME280;51842;47.450;8.654;2023-10-09T06:24:55;96241.22;;;11.13;100.00
44297;BME280;51842;47.450;8.654;2023-10-09T06:27:23;96246.69;;;11.28;100.00
44297;BME280;51842;47.450;8.654;2023-10-09T06:29:52;96245.22;;;11.43;100.00
44297;BME280;51842;47.450;8.654;2023-10-09T06:32:38;96253.63;;;11.56;100.00
44297;BME280;51842;47.450;8.654;2023-10-09T06:35:15;96247.84;;;11.70;100.00
44297;BME280;51842;47.450;8.654;2023-10-09T06:37:48;96246.31;;;11.79;100.00
44297;BME280;51842;47.450;8.654;2023-10-09T06:40:34;96234.38;;;11.87;100.00
44297;BME280;51842;47.450;8.654;2023-10-09T06:43:22;96245.13;;;11.97;100.00
44297;BME280;51842;47.450;8.654;2023-10-09T06:45:49;96244.66;;;12.05;100.00
44297;BME280;51842;47.450;8.654;2023-10-09T06:48:45;96240.25;;;12.26;100.00
44297;BME280;51842;47.450;8.654;2023-10-09T06:51:22;96248.09;;;12.48;100.00
44297;BME280;51842;47.450;8.654;2023-10-09T06:53:55;96251.91;;;12.62;99.40
44297;BME280;51842;47.450;8.654;2023-10-09T06:56:26;96259.69;;;12.74;100.00
44297;BME280;51842;47.450;8.654;2023-10-09T06:59:02;96254.13;;;12.86;99.10
44297;BME280;51842;47.450;8.654;2023-10-09T07:01:48;96258.19;;;12.99;97.97
44297;BME280;51842;47.450;8.654;2023-10-09T07:04:32;96264.63;;;13.13;98.41
44297;BME280;51842;47.450;8.654;2023-10-09T07:06:58;96268.16;;;13.24;96.53
44297;BME280;51842;47.450;8.654;2023-10-09T07:09:24;96266.06;;;13.36;96.30
44297;BME280;51842;47.450;8.654;2023-10-09T07:12:10;96276.78;;;13.51;96.11
44297;BME280;51842;47.450;8.654;2023-10-09T07:14:40;96273.59;;;13.64;95.41
44297;BME280;51842;47.450;8.654;2023-10-09T07:17:09;96267.44;;;13.79;95.89
44297;BME280;51842;47.450;8.654;2023-10-09T07:19:54;96271.19;;;13.99;92.58
44297;BME280;51842;47.450;8.654;2023-10-09T07:22:21;96274.09;;;14.18;92.29
44297;BME280;51842;47.450;8.654;2023-10-09T07:24:57;96280.75;;;14.41;90.32
44297;BME280;51842;47.450;8.654;2023-10-09T07:27:24;96273.75;;;14.65;89.29
44297;BME280;51842;47.450;8.654;2023-10-09T07:30:11;96278.97;;;15.01;86.86
44297;BME280;51842;47.450;8.654;2023-10-09T07:33:06;96276.81;;;15.47;83.20
44297;BME280;51842;47.450;8.654;2023-10-09T07:38:13;96284.09;;;16.45;76.61
44297;BME280;51842;47.450;8.654;2023-10-09T07:40:41;96281.19;;;16.94;75.19
44297;BME280;51842;47.450;8.654;2023-10-09T07:43:42;96280.78;;;17.44;71.20
44297;BME280;51842;47.450;8.654;2023-10-09T07:46:18;96286.13;;;17.87;69.24
44297;BME280;51842;47.450;8.654;2023-10-09T07:49:01;96280.16;;;18.36;67.35
44297;BME280;51842;47.450;8.654;2023-10-09T07:51:39;96288.22;;;18.83;64.94
44297;BME280;51842;47.450;8.654;2023-10-09T07:54:10;96294.41;;;19.25;63.46
44297;BME280;51842;47.450;8.654;2023-10-09T07:56:42;96293.63;;;19.60;61.66
44297;BME280;51842;47.450;8.654;2023-10-09T07:59:12;96296.00;;;19.98;60.14
44297;BME280;51842;47.450;8.654;2023-10-09T08:01:44;96296.13;;;20.38;58.68
44297;BME280;51842;47.450;8.654;2023-10-09T08:04:29;96306.84;;;20.83;57.06
44297;BME280;51842;47.450;8.654;2023-10-09T08:07:15;96304.41;;;21.13;56.15
44297;BME280;51842;47.450;8.654;2023-10-09T08:10:04;96304.66;;;21.42;54.40
44297;BME280;51842;47.450;8.654;2023-10-09T08:12:50;96312.94;;;21.46;53.82
44297;BME280;51842;47.450;8.654;2023-10-09T08:15:17;96304.84;;;21.89;52.71
44297;BME280;51842;47.450;8.654;2023-10-09T08:17:47;96322.22;;;22.06;51.05
44297;BME280;51842;47.450;8.654;2023-10-09T08:20:22;96311.38;;;22.06;50.41
44297;BME280;51842;47.450;8.654;2023-10-09T08:22:55;96317.47;;;22.20;50.76
44297;BME280;51842;47.450;8.654;2023-10-09T08:25:22;96321.47;;;22.31;50.69
44297;BME280;51842;47.450;8.654;2023-10-09T08:28:01;96313.91;;;22.54;50.48
44297;BME280;51842;47.450;8.654;2023-10-09T08:30:39;96317.78;;;22.83;50.02
44297;BME280;51842;47.450;8.654;2023-10-09T08:33:18;96318.72;;;22.96;49.52
44297;BME280;51842;47.450;8.654;2023-10-09T08:35:55;96320.38;;;23.18;49.57
44297;BME280;51842;47.450;8.654;2023-10-09T08:38:27;96319.47;;;23.35;48.70
44297;BME280;51842;47.450;8.654;2023-10-09T08:41:07;96320.88;;;23.41;49.64
44297;BME280;51842;47.450;8.654;2023-10-09T08:43:39;96319.72;;;23.21;49.53
44297;BME280;51842;47.450;8.654;2023-10-09T08:46:07;96317.50;;;23.23;49.65
44297;BME280;51842;47.450;8.654;2023-10-09T08:48:33;96319.00;;;23.41;49.17
44297;BME280;51842;47.450;8.654;2023-10-09T08:51:03;96325.22;;;23.71;48.82
44297;BME280;51842;47.450;8.654;2023-10-09T08:53:32;96325.09;;;23.89;47.92
44297;BME280;51842;47.450;8.654;2023-10-09T08:55:58;96324.00;;;23.81;48.02
44297;BME280;51842;47.450;8.654;2023-10-09T08:58:25;96329.13;;;23.53;48.93
44297;BME280;51842;47.450;8.654;2023-10-09T09:00:58;96332.66;;;23.53;49.02
44297;BME280;51842;47.450;8.654;2023-10-09T09:03:26;96328.06;;;23.75;47.88
44297;BME280;51842;47.450;8.654;2023-10-09T09:06:01;96330.91;;;23.99;48.66
44297;BME280;51842;47.450;8.654;2023-10-09T09:08:29;96330.06;;;24.08;48.41
44297;BME280;51842;47.450;8.654;2023-10-09T09:11:27;96330.94;;;24.33;47.43
44297;BME280;51842;47.450;8.654;2023-10-09T09:16:34;96325.41;;;24.75;46.14
44297;BME280;51842;47.450;8.654;2023-10-09T09:19:06;96333.53;;;25.08;44.54
44297;BME280;51842;47.450;8.654;2023-10-09T09:21:34;96322.31;;;25.34;44.28
44297;BME280;51842;47.450;8.654;2023-10-09T09:24:13;96325.38;;;25.45;44.11
44297;BME280;51842;47.450;8.654;2023-10-09T09:26:53;96326.59;;;25.59;43.00
44297;BME280;51842;47.450;8.654;2023-10-09T09:29:39;96324.22;;;25.82;42.98
44297;BME280;51842;47.450;8.654;2023-10-09T09:32:10;96315.56;;;25.68;41.59
44297;BME280;51842;47.450;8.654;2023-10-09T09:34:53;96320.97;;;25.80;41.85
44297;BME280;51842;47.450;8.654;2023-10-09T09:37:34;96317.06;;;26.06;41.65
44297;BME280;51842;47.450;8.654;2023-10-09T09:40:09;96321.56;;;26.26;40.19
44297;BME280;51842;47.450;8.654;2023-10-09T09:42:58;96313.06;;;26.16;40.58
44297;BME280;51842;47.450;8.654;2023-10-09T09:45:34;96313.50;;;25.90;40.67
44297;BME280;51842;47.450;8.654;2023-10-09T09:48:05;96308.88;;;26.06;40.75
44297;BME280;51842;47.450;8.654;2023-10-09T09:50:35;96305.59;;;26.28;40.77
44297;BME280;51842;47.450;8.654;2023-10-09T09:53:15;96310.03;;;26.33;39.97
44297;BME280;51842;47.450;8.654;2023-10-09T09:55:54;96307.00;;;26.50;39.88
44297;BME280;51842;47.450;8.654;2023-10-09T09:58:24;96305.97;;;25.99;40.65
44297;BME280;51842;47.450;8.654;2023-10-09T10:00:56;96305.50;;;26.25;41.06
44297;BME280;51842;47.450;8.654;2023-10-09T10:03:38;96296.16;;;25.98;41.44
44297;BME280;51842;47.450;8.654;2023-10-09T10:06:07;96298.97;;;25.86;42.62
44297;BME280;51842;47.450;8.654;2023-10-09T10:08:37;96290.56;;;26.06;42.44
44297;BME280;51842;47.450;8.654;2023-10-09T10:11:05;96282.84;;;26.08;41.98
44297;BME280;51842;47.450;8.654;2023-10-09T10:16:11;96284.84;;;26.40;41.13
44297;BME280;51842;47.450;8.654;2023-10-09T10:19:01;96287.75;;;26.47;42.29
44297;BME280;51842;47.450;8.654;2023-10-09T10:21:37;96287.72;;;26.59;41.19
44297;BME280;51842;47.450;8.654;2023-10-09T10:27:19;96284.22;;;26.30;41.68
44297;BME280;51842;47.450;8.654;2023-10-09T10:35:22;96286.31;;;26.81;41.95
44297;BME280;51842;47.450;8.654;2023-10-09T10:38:45;96290.28;;;26.99;41.87
44297;BME280;51842;47.450;8.654;2023-10-09T10:41:29;96284.81;;;26.84;41.25
44297;BME280;51842;47.450;8.654;2023-10-09T10:44:02;96284.75;;;26.80;40.87
44297;BME280;51842;47.450;8.654;2023-10-09T10:46:48;96278.56;;;26.67;40.83
44297;BME280;51842;47.450;8.654;2023-10-09T10:49:20;96289.59;;;26.71;41.00
44297;BME280;51842;47.450;8.654;2023-10-09T10:51:52;96273.19;;;26.87;41.38
44297;BME280;51842;47.450;8.654;2023-10-09T10:54:36;96275.56;;;26.88;40.79
44297;BME280;51842;47.450;8.654;2023-10-09T10:57:01;96267.66;;;26.83;41.26
44297;BME280;51842;47.450;8.654;2023-10-09T10:59:39;96269.81;;;27.09;40.91
44297;BME280;51842;47.450;8.654;2023-10-09T11:02:11;96277.72;;;27.46;41.86
44297;BME280;51842;47.450;8.654;2023-10-09T11:04:38;96265.31;;;27.17;39.96
44297;BME280;51842;47.450;8.654;2023-10-09T11:07:10;96263.75;;;27.16;40.86
44297;BME280;51842;47.450;8.654;2023-10-09T11:09:57;96254.13;;;27.06;41.40
44297;BME280;51842;47.450;8.654;2023-10-09T11:12:45;96252.38;;;27.30;41.20
44297;BME280;51842;47.450;8.654;2023-10-09T11:15:37;96250.16;;;27.19;39.93
44297;BME280;51842;47.450;8.654;2023-10-09T11:18:12;96249.19;;;27.28;40.07
44297;BME280;51842;47.450;8.654;2023-10-09T11:20:57;96244.06;;;27.10;40.81
44297;BME280;51842;47.450;8.654;2023-10-09T11:23:47;96249.81;;;27.21;40.32
44297;BME280;51842;47.450;8.654;2023-10-09T11:26:25;96250.00;;;27.48;38.95
44297;BME280;51842;47.450;8.654;2023-10-09T11:29:14;96253.34;;;27.76;38.71
44297;BME280;51842;47.450;8.654;2023-10-09T11:31:42;96249.72;;;27.53;38.96
44297;BME280;51842;47.450;8.654;2023-10-09T11:34:23;96252.41;;;27.49;39.06
44297;BME280;51842;47.450;8.654;2023-10-09T11:37:00;96257.38;;;27.63;38.96
44297;BME280;51842;47.450;8.654;2023-10-09T11:39:31;96261.84;;;27.71;38.42
44297;BME280;51842;47.450;8.654;2023-10-09T11:42:09;96260.06;;;27.79;38.01
44297;BME280;51842;47.450;8.654;2023-10-09T11:44:42;96257.38;;;27.63;38.76
44297;BME280;51842;47.450;8.654;2023-10-09T11:47:20;96257.81;;;27.65;39.06
44297;BME280;51842;47.450;8.654;2023-10-09T11:49:55;96248.47;;;27.85;38.81
44297;BME280;51842;47.450;8.654;2023-10-09T11:52:32;96249.41;;;27.74;38.88
44297;BME280;51842;47.450;8.654;2023-10-09T11:55:05;96246.25;;;27.91;39.21
44297;BME280;51842;47.450;8.654;2023-10-09T11:57:33;96236.47;;;27.90;38.42
44297;BME280;51842;47.450;8.654;2023-10-09T12:00:05;96237.34;;;27.59;38.93
44297;BME280;51842;47.450;8.654;2023-10-09T12:02:53;96232.06;;;27.31;38.55
44297;BME280;51842;47.450;8.654;2023-10-09T12:05:19;96221.94;;;26.99;39.49
44297;BME280;51842;47.450;8.654;2023-10-09T12:07:46;96208.84;;;26.89;39.46
44297;BME280;51842;47.450;8.654;2023-10-09T12:10:12;96216.56;;;27.03;39.55
44297;BME280;51842;47.450;8.654;2023-10-09T12:12:40;96219.44;;;27.26;39.68
44297;BME280;51842;47.450;8.654;2023-10-09T12:15:07;96212.13;;;27.30;39.24
44297;BME280;51842;47.450;8.654;2023-10-09T12:17:33;96212.78;;;27.08;39.34
44297;BME280;51842;47.450;8.654;2023-10-09T12:19:59;96216.94;;;27.17;40.29
44297;BME280;51842;47.450;8.654;2023-10-09T12:22:24;96210.31;;;27.03;39.83
44297;BME280;51842;47.450;8.654;2023-10-09T12:24:53;96209.06;;;27.16;40.00
44297;BME280;51842;47.450;8.654;2023-10-09T12:27:19;96213.13;;;27.22;39.61
44297;BME280;51842;47.450;8.654;2023-10-09T12:29:47;96206.78;;;27.18;39.94
44297;BME280;51842;47.450;8.654;2023-10-09T12:32:13;96203.97;;;27.14;40.98
44297;BME280;51842;47.450;8.654;2023-10-09T12:34:39;96198.59;;;27.02;41.32
44297;BME280;51842;47.450;8.654;2023-10-09T12:37:05;96188.47;;;26.87;41.04
44297;BME280;51842;47.450;8.654;2023-10-09T12:39:32;96185.59;;;26.64;41.58
44297;BME280;51842;47.450;8.654;2023-10-09T12:42:06;96195.97;;;26.42;42.71
44297;BME280;51842;47.450;8.654;2023-10-09T12:44:33;96186.09;;;26.38;42.73
44297;BME280;51842;47.450;8.654;2023-10-09T12:47:08;96190.91;;;26.28;42.94
44297;BME280;51842;47.450;8.654;2023-10-09T12:49:37;96178.75;;;26.26;42.84
44297;BME280;51842;47.450;8.654;2023-10-09T12:52:09;96181.16;;;26.27;43.66
44297;BME280;51842;47.450;8.654;2023-10-09T12:54:45;96178.41;;;26.27;43.21
44297;BME280;51842;47.450;8.654;2023-10-09T12:57:14;96182.22;;;26.39;42.98
44297;BME280;51842;47.450;8.654;2023-10-09T12:59:41;96182.56;;;26.37;42.58
44297;BME280;51842;47.450;8.654;2023-10-09T13:02:17;96178.75;;;26.26;42.67
44297;BME280;51842;47.450;8.654;2023-10-09T13:04:57;96175.16;;;26.22;42.93
44297;BME280;51842;47.450;8.654;2023-10-09T13:07:23;96175.06;;;26.18;44.02
44297;BME280;51842;47.450;8.654;2023-10-09T13:09:49;96185.19;;;26.18;44.49
44297;BME280;51842;47.450;8.654;2023-10-09T13:12:34;96174.81;;;26.07;44.25
44297;BME280;51842;47.450;8.654;2023-10-09T13:15:05;96164.66;;;25.92;44.15
44297;BME280;51842;47.450;8.654;2023-10-09T13:17:35;96164.59;;;25.76;44.56
44297;BME280;51842;47.450;8.654;2023-10-09T13:20:03;96161.53;;;25.66;45.08
44297;BME280;51842;47.450;8.654;2023-10-09T13:22:39;96154.50;;;25.65;45.41
44297;BME280;51842;47.450;8.654;2023-10-09T13:25:10;96155.13;;;25.58;44.98
44297;BME280;51842;47.450;8.654;2023-10-09T13:27:45;96152.97;;;25.51;45.18
44297;BME280;51842;47.450;8.654;2023-10-09T13:30:18;96149.44;;;25.51;45.43
44297;BME280;51842;47.450;8.654;2023-10-09T13:32:52;96149.25;;;25.44;45.74
44297;BME280;51842;47.450;8.654;2023-10-09T13:35:19;96148.47;;;25.43;46.21
44297;BME280;51842;47.450;8.654;2023-10-09T13:37:46;96146.28;;;25.49;46.93
44297;BME280;51842;47.450;8.654;2023-10-09T13:40:21;96145.41;;;25.45;45.79
44297;BME280;51842;47.450;8.654;2023-10-09T13:42:55;96141.84;;;25.44;45.80
44297;BME280;51842;47.450;8.654;2023-10-09T13:45:28;96140.63;;;25.42;47.64
44297;BME280;51842;47.450;8.654;2023-10-09T13:47:56;96143.38;;;25.42;46.81
44297;BME280;51842;47.450;8.654;2023-10-09T13:50:25;96136.75;;;25.43;47.01
44297;BME280;51842;47.450;8.654;2023-10-09T13:52:57;96132.00;;;25.39;47.30
44297;BME280;51842;47.450;8.654;2023-10-09T13:55:23;96134.19;;;25.34;47.53
44297;BME280;51842;47.450;8.654;2023-10-09T13:57:57;96120.53;;;25.34;49.06
44297;BME280;51842;47.450;8.654;2023-10-09T14:00:23;96126.41;;;25.20;49.13
44297;BME280;51842;47.450;8.654;2023-10-09T14:03:03;96123.91;;;25.03;50.04